createdAt,value
2023-04-05T00:00:12.261Z,88.12
2023-04-05T00:03:03.254Z,88.15
2023-04-05T00:05:30.740Z,89.37
2023-04-05T00:07:57.965Z,90.37
2023-04-05T00:10:28.001Z,91.51
2023-04-05T00:13:00.821Z,91.74
2023-04-05T00:15:28.086Z,92.11
2023-04-05T00:17:55.414Z,91.58
2023-04-05T00:20:22.608Z,89.75
2023-04-05T00:22:50.897Z,90.43
2023-04-05T00:25:18.598Z,88.89
2023-04-05T00:27:45.920Z,88.52
2023-04-05T00:30:13.472Z,87.55
2023-04-05T00:32:40.730Z,86.79
2023-04-05T00:35:08.208Z,86.71
2023-04-05T00:37:35.108Z,86.92
2023-04-05T00:40:02.557Z,87.57
2023-04-05T00:42:29.912Z,86.88
2023-04-05T00:44:58.231Z,86.18
2023-04-05T00:47:26.650Z,85.91
2023-04-05T00:49:53.909Z,85.50
2023-04-05T00:52:23.476Z,86.41
2023-04-05T00:54:51.873Z,85.48
2023-04-05T00:57:18.770Z,89.57
2023-04-05T00:59:46.922Z,88.90
2023-04-05T01:02:18.247Z,89.64
2023-04-05T01:04:50.291Z,88.93
2023-04-05T01:07:37.728Z,91.03
2023-04-05T01:10:10.774Z,91.50
2023-04-05T01:12:39.833Z,89.98
2023-04-05T01:15:07.407Z,91.44
2023-04-05T01:17:39.306Z,93.24
2023-04-05T01:20:12.151Z,93.18
2023-04-05T01:22:52.170Z,88.64
2023-04-05T01:25:36.968Z,88.81
2023-04-05T01:28:06.733Z,86.87
2023-04-05T01:30:36.357Z,85.87
2023-04-05T01:33:23.916Z,86.25
2023-04-05T01:36:01.522Z,86.01
2023-04-05T01:38:29.236Z,87.70
2023-04-05T01:40:56.591Z,87.17
2023-04-05T01:43:23.685Z,86.54
2023-04-05T01:45:51.009Z,87.08
2023-04-05T01:48:18.199Z,85.90
2023-04-05T01:50:45.829Z,85.68
2023-04-05T01:53:14.367Z,85.93
2023-04-05T01:55:44.072Z,85.13
2023-04-05T01:58:12.549Z,85.65
2023-04-05T02:00:39.999Z,86.83
2023-04-05T02:03:07.699Z,86.78
2023-04-05T02:05:35.063Z,87.45
2023-04-05T02:08:03.284Z,87.22
2023-04-05T02:10:30.656Z,88.14
2023-04-05T02:12:57.594Z,89.19
2023-04-05T02:15:25.276Z,90.58
2023-04-05T02:17:54.259Z,91.23
2023-04-05T02:20:21.766Z,90.30
2023-04-05T02:22:51.966Z,91.83
2023-04-05T02:25:19.568Z,89.81
2023-04-05T02:27:46.530Z,89.96
2023-04-05T02:30:15.643Z,91.64
2023-04-05T02:32:43.082Z,91.69
2023-04-05T02:35:10.816Z,90.59
2023-04-05T02:37:38.068Z,90.73
2023-04-05T02:40:15.171Z,91.14
2023-04-05T02:42:42.656Z,92.28
2023-04-05T02:45:10.076Z,92.59
2023-04-05T02:47:37.673Z,92.08
2023-04-05T02:50:07.673Z,92.46
2023-04-05T02:52:41.395Z,91.04
2023-04-05T02:55:09.188Z,90.11
2023-04-05T02:57:37.443Z,89.78
2023-04-05T03:00:20.479Z,90.77
2023-04-05T03:02:47.968Z,90.42
2023-04-05T03:05:18.768Z,89.25
2023-04-05T03:07:52.434Z,90.39
2023-04-05T03:10:25.087Z,89.88
2023-04-05T03:13:01.900Z,89.36
2023-04-05T03:15:32.746Z,89.80
2023-04-05T03:18:06.697Z,89.65
2023-04-05T03:20:36.204Z,89.49
2023-04-05T03:23:03.834Z,89.97
2023-04-05T03:25:34.280Z,90.09
2023-04-05T03:28:06.171Z,91.31
2023-04-05T03:30:34.814Z,90.99
2023-04-05T03:33:13.642Z,91.65
2023-04-05T03:35:45.403Z,89.67
2023-04-05T03:38:16.343Z,90.28
2023-04-05T03:40:56.049Z,89.19
2023-04-05T03:43:23.642Z,89.09
2023-04-05T03:45:50.759Z,88.44
2023-04-05T03:48:20.418Z,88.44
2023-04-05T03:50:49.056Z,86.91
2023-04-05T03:53:20.614Z,87.96
2023-04-05T03:55:55.784Z,87.65
2023-04-05T03:58:49.246Z,87.05
2023-04-05T04:01:19.540Z,86.79
2023-04-05T04:03:47.161Z,87.46
2023-04-05T04:06:15.434Z,87.72
2023-04-05T04:08:44.455Z,90.58
2023-04-05T04:11:11.846Z,89.06
2023-04-05T04:13:41.177Z,90.01
2023-04-05T04:16:18.141Z,89.18
2023-04-05T04:18:57.934Z,88.12
2023-04-05T04:21:25.172Z,89.24
2023-04-05T04:24:18.794Z,88.02
2023-04-05T04:26:54.791Z,89.04
2023-04-05T04:29:31.082Z,88.55
2023-04-05T04:32:45.123Z,89.23
2023-04-05T04:35:39.288Z,88.92
2023-04-05T04:38:48.294Z,88.46
2023-04-05T04:41:36.166Z,88.79
2023-04-05T04:44:31.287Z,89.60
2023-04-05T04:47:31.904Z,90.25
2023-04-05T04:50:20.376Z,87.91
2023-04-05T04:52:47.851Z,87.94
2023-04-05T04:55:26.034Z,88.61
2023-04-05T04:57:53.805Z,89.75
2023-04-05T05:00:22.432Z,90.70
2023-04-05T05:02:50.920Z,88.70
2023-04-05T05:05:22.798Z,90.92
2023-04-05T05:07:50.826Z,90.47
2023-04-05T05:10:19.011Z,89.89
2023-04-05T05:12:46.577Z,86.47
2023-04-05T05:15:18.124Z,84.78
2023-04-05T05:17:45.799Z,80.32
2023-04-05T05:20:12.835Z,79.85
2023-04-05T05:22:46.635Z,74.76
2023-04-05T05:25:13.984Z,74.02
2023-04-05T05:27:42.110Z,78.00
2023-04-05T05:30:09.689Z,74.68
2023-04-05T05:32:37.273Z,69.69
2023-04-05T05:35:06.116Z,68.24
2023-04-05T05:37:33.783Z,67.09
2023-04-05T05:40:01.064Z,63.32
2023-04-05T05:42:28.510Z,58.53
2023-04-05T05:44:55.553Z,59.19
2023-04-05T05:47:23.281Z,60.91
2023-04-05T05:49:50.413Z,63.96
2023-04-05T05:52:17.762Z,65.86
2023-04-05T05:54:44.745Z,67.55
2023-04-05T05:57:12.153Z,67.67
2023-04-05T05:59:42.154Z,68.49
2023-04-05T06:02:09.472Z,70.00
2023-04-05T06:04:37.998Z,68.61
2023-04-05T06:07:05.253Z,67.36
2023-04-05T06:09:35.645Z,67.16
2023-04-05T06:12:03.222Z,65.11
2023-04-05T06:14:30.260Z,64.97
2023-04-05T06:16:57.925Z,65.19
2023-04-05T06:19:25.980Z,65.16
2023-04-05T06:21:53.541Z,61.45
2023-04-05T06:24:21.081Z,59.86
2023-04-05T06:26:48.388Z,58.88
2023-04-05T06:29:15.536Z,59.31
2023-04-05T06:31:43.945Z,58.25
2023-04-05T06:34:11.056Z,58.40
2023-04-05T06:36:38.363Z,59.14
2023-04-05T06:39:05.342Z,59.97
2023-04-05T06:41:32.699Z,58.64
2023-04-05T06:44:00.604Z,60.05
2023-04-05T06:46:28.548Z,59.50
2023-04-05T06:48:55.747Z,61.19
2023-04-05T06:51:26.793Z,60.32
2023-04-05T06:53:53.758Z,60.25
2023-04-05T06:56:21.842Z,61.81
2023-04-05T06:58:51.034Z,61.20
2023-04-05T07:01:18.674Z,60.63
2023-04-05T07:03:48.619Z,61.12
2023-04-05T07:06:16.546Z,60.96
2023-04-05T07:08:43.604Z,60.09
2023-04-05T07:11:12.973Z,61.05
2023-04-05T07:13:39.987Z,59.53
2023-04-05T07:16:07.799Z,59.19
2023-04-05T07:18:34.849Z,59.41
2023-04-05T07:21:03.889Z,58.75
2023-04-05T07:23:31.035Z,57.81
2023-04-05T07:26:05.679Z,57.27
2023-04-05T07:28:33.891Z,57.03
2023-04-05T07:31:04.217Z,57.39
2023-04-05T07:33:31.678Z,57.04
2023-04-05T07:35:59.273Z,56.09
2023-04-05T07:38:27.124Z,53.56
2023-04-05T07:40:54.718Z,47.08
2023-04-05T07:43:25.616Z,42.23
2023-04-05T07:45:56.480Z,39.68
2023-04-05T07:48:23.481Z,36.81
2023-04-05T07:50:52.996Z,33.99
2023-04-05T07:53:20.064Z,31.87
2023-04-05T07:55:47.370Z,32.38
2023-04-05T07:58:14.420Z,35.21
2023-04-05T08:00:42.304Z,34.83
2023-04-05T08:03:09.588Z,33.37
2023-04-05T08:05:36.967Z,31.74
2023-04-05T08:08:08.856Z,30.25
2023-04-05T08:10:38.914Z,30.60
2023-04-05T08:13:08.437Z,29.78
2023-04-05T08:15:38.164Z,29.90
2023-04-05T08:18:05.435Z,29.54
2023-04-05T08:20:39.680Z,30.72
2023-04-05T08:23:07.018Z,30.93
2023-04-05T08:25:34.491Z,30.92
2023-04-05T08:28:01.526Z,30.76
2023-04-05T08:30:28.815Z,31.53
2023-04-05T08:32:55.859Z,29.86
2023-04-05T08:35:23.778Z,31.11
2023-04-05T08:37:50.932Z,29.48
2023-04-05T08:40:18.384Z,29.15
2023-04-05T08:43:05.618Z,28.85
2023-04-05T08:45:34.452Z,30.73
2023-04-05T08:48:01.531Z,30.14
2023-04-05T08:50:31.262Z,30.37
2023-04-05T08:52:58.529Z,31.49
2023-04-05T08:55:26.308Z,30.78
2023-04-05T08:57:59.289Z,30.01
2023-04-05T09:00:33.024Z,30.75
2023-04-05T09:03:03.386Z,31.38
2023-04-05T09:05:31.049Z,31.84
2023-04-05T09:07:58.675Z,30.57
2023-04-05T09:10:27.401Z,31.64
2023-04-05T09:12:54.427Z,33.57
2023-04-05T09:16:28.622Z,35.74
2023-04-05T09:18:59.794Z,38.46
2023-04-05T09:21:29.519Z,38.03
2023-04-05T09:23:56.755Z,36.12
2023-04-05T09:26:26.446Z,37.10
2023-04-05T09:29:00.150Z,35.98
2023-04-05T09:31:40.282Z,37.17
2023-04-05T09:34:12.383Z,37.82
2023-04-05T09:36:46.616Z,37.30
2023-04-05T09:39:14.158Z,37.77
2023-04-05T09:41:42.013Z,36.53
2023-04-05T09:44:08.941Z,37.05
2023-04-05T09:46:39.609Z,35.50
2023-04-05T09:50:10.668Z,35.92
2023-04-05T09:52:37.976Z,34.51
2023-04-05T09:55:07.327Z,34.52
2023-04-05T09:57:35.607Z,35.31
2023-04-05T10:00:04.457Z,36.53
2023-04-05T10:02:42.021Z,35.92
2023-04-05T10:05:15.969Z,35.79
2023-04-05T10:07:43.757Z,36.76
2023-04-05T10:10:12.654Z,35.67
2023-04-05T10:12:41.736Z,35.15
2023-04-05T10:15:10.655Z,33.58
2023-04-05T10:18:00.722Z,33.74
2023-04-05T10:20:28.354Z,34.20
2023-04-05T10:23:08.092Z,33.85
2023-04-05T10:25:44.949Z,33.42
2023-04-05T10:28:14.852Z,32.49
2023-04-05T10:30:46.730Z,33.33
2023-04-05T10:33:20.658Z,34.98
2023-04-05T10:35:51.215Z,36.53
2023-04-05T10:38:24.625Z,36.53
2023-04-05T10:40:53.208Z,37.59
2023-04-05T10:43:27.202Z,37.05
2023-04-05T10:45:54.934Z,36.82
2023-04-05T10:48:37.502Z,36.49
2023-04-05T10:51:05.414Z,36.17
2023-04-05T10:53:34.203Z,37.61
2023-04-05T10:56:01.775Z,36.41
2023-04-05T10:58:29.583Z,36.57
2023-04-05T11:00:57.805Z,36.63
2023-04-05T11:03:43.935Z,37.00
2023-04-05T11:06:23.201Z,37.35
2023-04-05T11:08:55.006Z,37.07
2023-04-05T11:11:22.614Z,36.58
2023-04-05T11:13:53.384Z,36.33
2023-04-05T11:16:20.875Z,35.93
2023-04-05T11:18:49.645Z,35.69
2023-04-05T11:21:26.324Z,34.56
2023-04-05T11:24:07.923Z,35.27
2023-04-05T11:26:48.752Z,35.60
2023-04-05T11:29:16.336Z,35.01
2023-04-05T11:32:02.304Z,34.91
2023-04-05T11:34:29.525Z,32.11
2023-04-05T11:36:56.436Z,32.20
2023-04-05T11:39:24.126Z,32.11
2023-04-05T11:41:57.310Z,32.90
2023-04-05T11:44:24.996Z,32.72
2023-04-05T11:46:52.737Z,33.50
2023-04-05T11:49:22.290Z,33.30
2023-04-05T11:51:50.419Z,34.48
2023-04-05T11:54:31.268Z,33.86
2023-04-05T11:56:58.487Z,34.43
2023-04-05T11:59:35.943Z,33.91
2023-04-05T12:02:05.629Z,34.37
2023-04-05T12:04:32.989Z,34.96
2023-04-05T12:07:17.033Z,34.39
2023-04-05T12:10:03.986Z,34.36
2023-04-05T12:12:34.251Z,34.69
2023-04-05T12:15:02.862Z,35.52
2023-04-05T12:17:39.685Z,35.09
2023-04-05T12:20:07.563Z,33.85
2023-04-05T12:22:34.883Z,33.79
2023-04-05T12:25:05.479Z,34.54
2023-04-05T12:27:32.492Z,34.01
2023-04-05T12:30:10.176Z,34.17
2023-04-05T12:32:43.548Z,34.48
2023-04-05T12:35:12.455Z,35.13
2023-04-05T12:37:41.925Z,34.67
2023-04-05T12:40:10.869Z,35.88
2023-04-05T12:42:38.856Z,34.78
2023-04-05T12:45:07.836Z,35.13
2023-04-05T12:47:36.010Z,33.50
2023-04-05T12:50:14.663Z,33.31
2023-04-05T12:52:53.994Z,33.93
2023-04-05T12:55:21.704Z,34.29
2023-04-05T12:57:52.880Z,34.10
2023-04-05T13:00:24.763Z,33.99
2023-04-05T13:02:53.797Z,33.74
2023-04-05T13:05:22.357Z,33.99
2023-04-05T13:07:49.359Z,35.48
2023-04-05T13:10:17.358Z,35.31
2023-04-05T13:12:44.275Z,36.23
2023-04-05T13:15:11.721Z,36.78
2023-04-05T13:17:38.716Z,35.65
2023-04-05T13:20:06.570Z,36.16
2023-04-05T13:22:34.132Z,35.62
2023-04-05T13:25:01.418Z,35.90
2023-04-05T13:27:30.958Z,35.80
2023-04-05T13:29:58.119Z,36.20
2023-04-05T13:32:25.199Z,38.07
2023-04-05T13:34:52.592Z,36.79
2023-04-05T13:37:19.627Z,35.61
2023-04-05T13:39:49.616Z,35.94
2023-04-05T13:42:16.731Z,35.85
2023-04-05T13:44:44.065Z,35.15
2023-04-05T13:47:11.039Z,35.71
2023-04-05T13:49:38.485Z,35.30
2023-04-05T13:52:05.596Z,34.02
2023-04-05T13:54:32.896Z,35.03
2023-04-05T13:56:59.993Z,34.69
2023-04-05T13:59:29.915Z,35.22
2023-04-05T14:01:57.519Z,34.78
2023-04-05T14:04:24.984Z,34.61
2023-04-05T14:06:52.084Z,35.32
2023-04-05T14:09:19.417Z,35.79
2023-04-05T14:11:46.502Z,36.43
2023-04-05T14:14:14.083Z,35.88
2023-04-05T14:16:41.042Z,35.88
2023-04-05T14:19:08.375Z,35.46
2023-04-05T14:21:37.360Z,35.71
2023-04-05T14:24:04.623Z,36.53
2023-04-05T14:26:31.747Z,36.13
2023-04-05T14:28:59.322Z,36.07
2023-04-05T14:31:26.489Z,35.19
2023-04-05T14:33:53.928Z,35.77
2023-04-05T14:36:21.059Z,36.43
2023-04-05T14:38:48.436Z,36.29
2023-04-05T14:41:15.689Z,36.82
2023-04-05T14:43:43.372Z,35.83
2023-04-05T14:46:10.752Z,35.47
2023-04-05T14:48:38.210Z,35.83
2023-04-05T14:51:05.606Z,35.86
2023-04-05T14:53:33.030Z,36.04
2023-04-05T14:56:00.940Z,36.55
2023-04-05T14:58:29.584Z,36.42
2023-04-05T15:00:57.170Z,36.34
2023-04-05T15:03:25.159Z,36.61
2023-04-05T15:05:52.491Z,36.78
2023-04-05T15:08:22.736Z,37.66
2023-04-05T15:10:49.876Z,37.71
2023-04-05T15:13:19.860Z,36.90
2023-04-05T15:15:46.941Z,37.50
2023-04-05T15:18:14.347Z,37.60
2023-04-05T15:20:42.805Z,37.68
2023-04-05T15:23:10.128Z,37.93
2023-04-05T15:25:37.131Z,37.58
2023-04-05T15:28:07.029Z,37.68
2023-04-05T15:30:34.290Z,37.48
2023-04-05T15:33:02.247Z,37.94
2023-04-05T15:35:29.464Z,37.91
2023-04-05T15:37:57.113Z,37.92
2023-04-05T15:40:24.125Z,37.90
2023-04-05T15:42:51.479Z,37.98
2023-04-05T15:45:18.538Z,37.57
2023-04-05T15:47:45.864Z,38.13
2023-04-05T15:50:12.991Z,38.06
2023-04-05T15:52:40.251Z,38.33
2023-04-05T15:55:07.473Z,38.57
2023-04-05T15:57:34.723Z,38.74
2023-04-05T16:00:02.006Z,38.49
2023-04-05T16:02:32.020Z,38.56
2023-04-05T16:04:58.984Z,39.58
2023-04-05T16:07:26.625Z,38.94
2023-04-05T16:09:53.593Z,39.03
2023-04-05T16:12:20.958Z,38.50
2023-04-05T16:14:47.999Z,38.59
2023-04-05T16:17:15.582Z,38.49
2023-04-05T16:19:44.976Z,39.04
2023-04-05T16:22:12.434Z,38.36
2023-04-05T16:24:39.418Z,38.38
2023-04-05T16:27:06.887Z,39.02
2023-04-05T16:29:33.993Z,39.51
2023-04-05T16:32:03.743Z,39.43
2023-04-05T16:34:31.174Z,39.40
2023-04-05T16:36:58.848Z,40.09
2023-04-05T16:39:25.936Z,40.03
2023-04-05T16:41:55.670Z,40.79
2023-04-05T16:44:22.565Z,40.92
2023-04-05T16:46:49.823Z,40.96
2023-04-05T16:49:17.216Z,41.49
2023-04-05T16:51:44.496Z,40.44
2023-04-05T16:54:11.753Z,41.04
2023-04-05T16:56:39.402Z,41.28
2023-04-05T16:59:08.159Z,41.33
2023-04-05T17:01:36.034Z,40.75
2023-04-05T17:04:06.271Z,41.14
2023-04-05T17:06:34.161Z,42.17
2023-04-05T17:09:02.415Z,41.37
2023-04-05T17:11:30.742Z,41.32
2023-04-05T17:13:59.612Z,41.70
2023-04-05T17:16:27.338Z,41.66
2023-04-05T17:18:54.461Z,42.10
2023-04-05T17:21:23.018Z,42.12
2023-04-05T17:23:50.077Z,42.27
2023-04-05T17:26:17.566Z,43.21
2023-04-05T17:28:44.698Z,42.72
2023-04-05T17:31:12.236Z,43.00
2023-04-05T17:33:39.349Z,42.74
2023-04-05T17:36:07.465Z,42.97
2023-04-05T17:38:34.737Z,42.65
2023-04-05T17:41:03.051Z,43.09
2023-04-05T17:43:30.175Z,43.05
2023-04-05T17:45:57.553Z,42.42
2023-04-05T17:48:24.789Z,42.42
2023-04-05T17:50:52.311Z,42.02
2023-04-05T17:53:21.868Z,42.04
2023-04-05T17:55:51.549Z,42.59
2023-04-05T17:58:19.679Z,42.51
2023-04-05T18:00:47.040Z,43.56
2023-04-05T18:03:14.379Z,43.26
2023-04-05T18:05:41.743Z,43.83
2023-04-05T18:08:08.803Z,43.94
2023-04-05T18:10:36.616Z,44.32
2023-04-05T18:13:06.641Z,43.96
2023-04-05T18:15:34.315Z,45.37
2023-04-05T18:18:01.614Z,45.10
2023-04-05T18:20:29.322Z,45.75
2023-04-05T18:22:58.233Z,46.22
2023-04-05T18:25:26.109Z,46.54
2023-04-05T18:27:53.653Z,46.32
2023-04-05T18:30:21.185Z,47.56
2023-04-05T18:32:48.107Z,47.87
2023-04-05T18:35:15.592Z,48.34
2023-04-05T18:37:42.549Z,48.65
2023-04-05T18:40:09.826Z,48.30
2023-04-05T18:42:37.471Z,48.98
2023-04-05T18:45:04.685Z,48.54
2023-04-05T18:47:34.070Z,48.84
2023-04-05T18:50:03.648Z,49.87
2023-04-05T18:52:34.225Z,50.35
2023-04-05T18:55:01.584Z,50.54
2023-04-05T18:57:32.282Z,49.45
2023-04-05T18:59:59.650Z,49.83
2023-04-05T19:02:27.503Z,51.70
2023-04-05T19:04:55.578Z,50.73
2023-04-05T19:07:23.465Z,50.17
2023-04-05T19:09:50.545Z,51.48
2023-04-05T19:12:17.990Z,51.80
2023-04-05T19:14:46.652Z,51.34
2023-04-05T19:17:14.451Z,51.25
2023-04-05T19:19:42.624Z,50.49
2023-04-05T19:22:11.363Z,50.72
2023-04-05T19:24:40.308Z,51.10
2023-04-05T19:27:08.310Z,51.26
2023-04-05T19:29:36.297Z,52.35
2023-04-05T19:32:04.245Z,50.22
2023-04-05T19:34:32.333Z,50.37
2023-04-05T19:37:01.112Z,50.46
2023-04-05T19:39:29.851Z,51.08
2023-04-05T19:41:58.426Z,51.50
2023-04-05T19:44:36.002Z,51.15
2023-04-05T19:47:07.534Z,51.55
2023-04-05T19:49:39.481Z,51.87
2023-04-05T19:52:08.485Z,52.83
2023-04-05T19:54:38.931Z,53.54
2023-04-05T19:57:07.380Z,53.70
2023-04-05T19:59:35.080Z,54.64
2023-04-05T20:02:12.060Z,56.15
2023-04-05T20:04:39.833Z,56.37
2023-04-05T20:07:10.017Z,57.40
2023-04-05T20:09:40.182Z,56.99
2023-04-05T20:12:07.781Z,58.97
2023-04-05T20:14:34.831Z,57.77
2023-04-05T20:17:02.170Z,57.74
2023-04-05T20:19:30.918Z,57.29
2023-04-05T20:22:01.713Z,57.84
2023-04-05T20:24:30.532Z,57.64
2023-04-05T20:26:58.409Z,60.18
2023-04-05T20:29:27.814Z,59.03
2023-04-05T20:31:55.486Z,58.88
2023-04-05T20:34:31.622Z,60.67
2023-04-05T20:37:00.802Z,59.69
2023-04-05T20:39:28.596Z,59.75
2023-04-05T20:41:56.952Z,60.19
2023-04-05T20:44:24.962Z,60.38
2023-04-05T20:46:54.238Z,60.85
2023-04-05T20:49:21.642Z,61.36
2023-04-05T20:51:55.908Z,60.98
2023-04-05T20:54:25.745Z,62.17
2023-04-05T20:56:53.437Z,62.52
2023-04-05T20:59:21.950Z,63.87
2023-04-05T21:01:49.602Z,63.78
2023-04-05T21:04:19.076Z,63.66
2023-04-05T21:06:46.614Z,64.01
2023-04-05T21:09:16.154Z,66.12
2023-04-05T21:11:43.642Z,66.07
2023-04-05T21:14:11.199Z,67.67
2023-04-05T21:16:41.074Z,68.55
2023-04-05T21:19:11.100Z,68.62
2023-04-05T21:21:38.799Z,69.25
2023-04-05T21:24:09.655Z,72.57
2023-04-05T21:26:37.906Z,73.89
2023-04-05T21:29:05.635Z,73.33
2023-04-05T21:31:33.839Z,74.69
2023-04-05T21:34:01.022Z,76.24
2023-04-05T21:36:29.912Z,77.17
2023-04-05T21:38:58.917Z,77.69
2023-04-05T21:41:27.367Z,78.73
2023-04-05T21:43:57.720Z,81.63
2023-04-05T21:46:25.727Z,83.83
2023-04-05T21:48:52.865Z,84.96
2023-04-05T21:51:20.602Z,87.28
2023-04-05T21:53:48.312Z,87.36
2023-04-05T21:56:16.550Z,90.60
2023-04-05T21:58:43.843Z,90.17
2023-04-05T22:01:14.045Z,91.09
2023-04-05T22:03:41.529Z,89.86
2023-04-05T22:06:09.224Z,95.08
2023-04-05T22:08:39.840Z,97.79
2023-04-05T22:11:07.462Z,99.23
2023-04-05T22:13:34.665Z,100.00
2023-04-05T22:16:02.263Z,100.00
2023-04-05T22:18:29.638Z,100.00
2023-04-05T22:20:57.513Z,100.00
2023-04-05T22:23:24.702Z,100.00
2023-04-05T22:25:55.250Z,100.00
2023-04-05T22:28:23.749Z,100.00
2023-04-05T22:30:51.888Z,100.00
2023-04-05T22:33:19.051Z,100.00
2023-04-05T22:35:49.185Z,100.00
2023-04-05T22:38:16.448Z,100.00
2023-04-05T22:40:47.796Z,100.00
2023-04-05T22:43:15.134Z,100.00
2023-04-05T22:45:45.142Z,100.00
2023-04-05T22:48:12.417Z,100.00
2023-04-05T22:50:41.742Z,100.00
2023-04-05T22:53:08.905Z,100.00
2023-04-05T22:55:40.736Z,100.00
2023-04-05T22:58:08.252Z,100.00
2023-04-05T23:00:37.576Z,100.00
2023-04-05T23:03:05.098Z,100.00
2023-04-05T23:05:36.918Z,100.00
2023-04-05T23:08:04.539Z,100.00
2023-04-05T23:10:33.205Z,100.00
2023-04-05T23:13:00.986Z,100.00
2023-04-05T23:15:29.997Z,100.00
2023-04-05T23:18:00.057Z,100.00
2023-04-05T23:20:27.901Z,100.00
2023-04-05T23:22:57.974Z,100.00
2023-04-05T23:25:25.856Z,100.00
2023-04-05T23:27:55.565Z,100.00
2023-04-05T23:30:24.454Z,100.00
2023-04-05T23:32:52.088Z,100.00
2023-04-05T23:35:22.468Z,100.00
2023-04-05T23:37:50.034Z,100.00
2023-04-05T23:40:17.818Z,100.00
2023-04-05T23:42:46.485Z,100.00
2023-04-05T23:45:14.014Z,100.00
2023-04-05T23:47:41.468Z,100.00
2023-04-05T23:50:09.514Z,100.00
2023-04-05T23:52:40.103Z,100.00
2023-04-05T23:55:07.773Z,100.00
2023-04-05T23:57:37.265Z,100.00
